sensor_id;sensor_type;location;lat;lon;timestamp;pressure;altitude;pressure_sealevel;temperature;humidity
82249;BME280;71851;49.092;18.918;2023-12-14T00:01:06;95842.47;;;4.41;78.92
82249;BME280;71851;49.092;18.918;2023-12-14T00:04:10;95845.06;;;4.41;79.87
82249;BME280;71851;49.092;18.918;2023-12-14T00:07:10;95841.50;;;4.42;79.49
82249;BME280;71851;49.092;18.918;2023-12-14T00:10:14;95839.09;;;4.41;79.76
82249;BME280;71851;49.092;18.918;2023-12-14T00:13:15;95840.88;;;4.40;79.94
82249;BME280;71851;49.092;18.918;2023-12-14T00:16:15;95838.69;;;4.29;79.86
82249;BME280;71851;49.092;18.918;2023-12-14T00:19:15;95854.75;;;4.32;79.42
82249;BME280;71851;49.092;18.918;2023-12-14T00:22:17;95847.28;;;4.29;79.04
82249;BME280;71851;49.092;18.918;2023-12-14T00:25:17;95849.81;;;4.38;79.10
82249;BME280;71851;49.092;18.918;2023-12-14T00:28:17;95857.41;;;4.39;79.09
82249;BME280;71851;49.092;18.918;2023-12-14T00:31:18;95860.38;;;4.36;78.35
82249;BME280;71851;49.092;18.918;2023-12-14T00:34:18;95869.69;;;4.30;78.30
82249;BME280;71851;49.092;18.918;2023-12-14T00:37:19;95875.59;;;4.24;78.60
82249;BME280;71851;49.092;18.918;2023-12-14T00:40:19;95870.47;;;4.31;78.46
82249;BME280;71851;49.092;18.918;2023-12-14T00:43:19;95880.22;;;4.29;78.38
82249;BME280;71851;49.092;18.918;2023-12-14T00:46:20;95882.94;;;4.36;78.34
82249;BME280;71851;49.092;18.918;2023-12-14T00:49:20;95881.16;;;4.36;78.55
82249;BME280;71851;49.092;18.918;2023-12-14T00:52:20;95895.03;;;4.43;78.79
82249;BME280;71851;49.092;18.918;2023-12-14T00:55:21;95900.84;;;4.45;78.19
82249;BME280;71851;49.092;18.918;2023-12-14T00:58:21;95889.69;;;4.45;78.23
82249;BME280;71851;49.092;18.918;2023-12-14T01:01:22;95891.56;;;4.51;78.51
82249;BME280;71851;49.092;18.918;2023-12-14T01:04:22;95898.75;;;4.49;78.33
82249;BME280;71851;49.092;18.918;2023-12-14T01:07:22;95903.75;;;4.50;79.16
82249;BME280;71851;49.092;18.918;2023-12-14T01:10:23;95896.41;;;4.54;78.93
82249;BME280;71851;49.092;18.918;2023-12-14T01:13:23;95903.03;;;4.56;79.09
82249;BME280;71851;49.092;18.918;2023-12-14T01:16:26;95901.84;;;4.44;79.92
82249;BME280;71851;49.092;18.918;2023-12-14T01:19:26;95905.72;;;4.48;81.28
82249;BME280;71851;49.092;18.918;2023-12-14T01:22:26;95903.63;;;4.44;79.95
82249;BME280;71851;49.092;18.918;2023-12-14T01:25:27;95892.81;;;4.40;81.13
82249;BME280;71851;49.092;18.918;2023-12-14T01:28:27;95892.09;;;4.46;81.49
82249;BME280;71851;49.092;18.918;2023-12-14T01:31:28;95888.88;;;4.44;80.28
82249;BME280;71851;49.092;18.918;2023-12-14T01:34:29;95902.59;;;4.53;80.34
82249;BME280;71851;49.092;18.918;2023-12-14T01:37:29;95899.53;;;4.49;79.30
82249;BME280;71851;49.092;18.918;2023-12-14T01:40:29;95903.56;;;4.52;79.20
82249;BME280;71851;49.092;18.918;2023-12-14T01:43:30;95892.22;;;4.53;79.22
82249;BME280;71851;49.092;18.918;2023-12-14T01:46:30;95892.28;;;4.59;78.85
82249;BME280;71851;49.092;18.918;2023-12-14T01:49:31;95887.38;;;4.64;78.63
82249;BME280;71851;49.092;18.918;2023-12-14T01:52:31;95880.22;;;4.66;78.57
82249;BME280;71851;49.092;18.918;2023-12-14T01:55:31;95876.53;;;4.75;78.27
82249;BME280;71851;49.092;18.918;2023-12-14T01:58:32;95885.03;;;4.69;77.96
82249;BME280;71851;49.092;18.918;2023-12-14T02:01:42;95876.16;;;4.64;78.37
82249;BME280;71851;49.092;18.918;2023-12-14T02:04:43;95875.53;;;4.47;78.10
82249;BME280;71851;49.092;18.918;2023-12-14T02:07:44;95881.59;;;4.40;78.84
82249;BME280;71851;49.092;18.918;2023-12-14T02:10:44;95889.56;;;4.38;79.22
82249;BME280;71851;49.092;18.918;2023-12-14T02:13:45;95901.38;;;4.03;80.16
82249;BME280;71851;49.092;18.918;2023-12-14T02:16:47;95895.22;;;4.04;79.72
82249;BME280;71851;49.092;18.918;2023-12-14T02:19:47;95900.00;;;4.15;78.99
82249;BME280;71851;49.092;18.918;2023-12-14T02:22:48;95891.69;;;4.20;78.85
82249;BME280;71851;49.092;18.918;2023-12-14T02:25:50;95892.44;;;4.28;78.18
82249;BME280;71851;49.092;18.918;2023-12-14T02:28:50;95902.13;;;4.35;78.69
82249;BME280;71851;49.092;18.918;2023-12-14T02:31:51;95899.53;;;4.35;78.34
82249;BME280;71851;49.092;18.918;2023-12-14T02:34:51;95905.56;;;4.27;78.19
82249;BME280;71851;49.092;18.918;2023-12-14T02:37:52;95901.63;;;4.31;78.06
82249;BME280;71851;49.092;18.918;2023-12-14T02:40:53;95901.94;;;4.36;77.96
82249;BME280;71851;49.092;18.918;2023-12-14T02:43:53;95901.75;;;4.38;77.89
82249;BME280;71851;49.092;18.918;2023-12-14T02:46:53;95908.38;;;4.40;77.48
82249;BME280;71851;49.092;18.918;2023-12-14T02:49:54;95915.81;;;4.43;77.39
82249;BME280;71851;49.092;18.918;2023-12-14T02:52:55;95906.94;;;4.38;76.95
82249;BME280;71851;49.092;18.918;2023-12-14T02:55:55;95915.19;;;4.41;77.43
82249;BME280;71851;49.092;18.918;2023-12-14T02:58:55;95917.88;;;4.48;76.79
82249;BME280;71851;49.092;18.918;2023-12-14T03:01:56;95930.44;;;4.44;77.38
82249;BME280;71851;49.092;18.918;2023-12-14T03:04:56;95933.66;;;4.46;77.00
82249;BME280;71851;49.092;18.918;2023-12-14T03:07:56;95930.31;;;4.38;76.90
82249;BME280;71851;49.092;18.918;2023-12-14T03:10:57;95918.66;;;4.33;78.12
82249;BME280;71851;49.092;18.918;2023-12-14T03:13:57;95934.44;;;4.32;78.34
82249;BME280;71851;49.092;18.918;2023-12-14T03:16:57;95938.47;;;4.35;78.27
82249;BME280;71851;49.092;18.918;2023-12-14T03:19:58;95937.13;;;4.39;77.73
82249;BME280;71851;49.092;18.918;2023-12-14T03:22:58;95944.22;;;4.45;77.73
82249;BME280;71851;49.092;18.918;2023-12-14T03:25:59;95935.09;;;4.49;77.84
82249;BME280;71851;49.092;18.918;2023-12-14T03:28:59;95944.44;;;4.35;78.34
82249;BME280;71851;49.092;18.918;2023-12-14T03:31:59;95941.63;;;4.45;79.31
82249;BME280;71851;49.092;18.918;2023-12-14T03:35:00;95959.97;;;4.43;80.41
82249;BME280;71851;49.092;18.918;2023-12-14T03:38:00;95961.34;;;4.54;80.57
82249;BME280;71851;49.092;18.918;2023-12-14T03:41:01;95964.59;;;4.70;80.15
82249;BME280;71851;49.092;18.918;2023-12-14T03:44:01;95962.47;;;4.74;79.84
82249;BME280;71851;49.092;18.918;2023-12-14T03:47:01;95962.38;;;4.82;79.30
82249;BME280;71851;49.092;18.918;2023-12-14T03:50:02;95966.31;;;4.78;79.14
82249;BME280;71851;49.092;18.918;2023-12-14T03:53:03;95968.72;;;4.79;78.91
82249;BME280;71851;49.092;18.918;2023-12-14T03:56:03;95971.50;;;4.78;77.95
82249;BME280;71851;49.092;18.918;2023-12-14T03:59:04;95982.09;;;4.76;78.73
82249;BME280;71851;49.092;18.918;2023-12-14T04:02:04;95982.47;;;4.88;78.58
82249;BME280;71851;49.092;18.918;2023-12-14T04:05:06;95980.75;;;4.80;78.50
82249;BME280;71851;49.092;18.918;2023-12-14T04:08:07;95987.13;;;4.92;79.54
82249;BME280;71851;49.092;18.918;2023-12-14T04:11:08;96006.06;;;5.01;80.22
82249;BME280;71851;49.092;18.918;2023-12-14T04:14:09;96005.00;;;5.10;79.43
82249;BME280;71851;49.092;18.918;2023-12-14T04:17:10;96004.66;;;5.13;79.76
82249;BME280;71851;49.092;18.918;2023-12-14T04:20:13;96006.31;;;5.06;79.96
82249;BME280;71851;49.092;18.918;2023-12-14T04:23:14;96008.41;;;5.10;79.33
82249;BME280;71851;49.092;18.918;2023-12-14T04:26:15;96025.97;;;5.23;79.24
82249;BME280;71851;49.092;18.918;2023-12-14T04:29:15;96031.66;;;5.27;78.89
82249;BME280;71851;49.092;18.918;2023-12-14T04:32:15;96022.31;;;5.32;78.91
82249;BME280;71851;49.092;18.918;2023-12-14T04:35:16;96027.75;;;5.37;78.83
82249;BME280;71851;49.092;18.918;2023-12-14T04:38:17;96029.84;;;5.42;78.24
82249;BME280;71851;49.092;18.918;2023-12-14T04:41:17;96029.66;;;5.43;78.23
82249;BME280;71851;49.092;18.918;2023-12-14T04:44:18;96036.09;;;5.47;78.15
82249;BME280;71851;49.092;18.918;2023-12-14T04:47:19;96033.16;;;5.50;77.95
82249;BME280;71851;49.092;18.918;2023-12-14T04:50:19;96045.00;;;5.53;77.74
82249;BME280;71851;49.092;18.918;2023-12-14T04:53:21;96042.03;;;5.56;77.80
82249;BME280;71851;49.092;18.918;2023-12-14T04:56:21;96052.09;;;5.59;77.50
82249;BME280;71851;49.092;18.918;2023-12-14T04:59:21;96060.53;;;5.61;77.35
82249;BME280;71851;49.092;18.918;2023-12-14T05:02:22;96067.16;;;5.63;77.12
82249;BME280;71851;49.092;18.918;2023-12-14T05:05:23;96065.38;;;5.64;76.89
82249;BME280;71851;49.092;18.918;2023-12-14T05:08:23;96062.94;;;5.62;77.13
82249;BME280;71851;49.092;18.918;2023-12-14T05:11:24;96078.56;;;5.62;77.04
82249;BME280;71851;49.092;18.918;2023-12-14T05:14:25;96082.13;;;5.61;76.95
82249;BME280;71851;49.092;18.918;2023-12-14T05:17:27;96079.00;;;5.51;77.15
82249;BME280;71851;49.092;18.918;2023-12-14T05:20:28;96093.44;;;5.54;76.89
82249;BME280;71851;49.092;18.918;2023-12-14T05:23:28;96089.50;;;5.58;77.08
82249;BME280;71851;49.092;18.918;2023-12-14T05:26:29;96089.41;;;5.51;77.35
82249;BME280;71851;49.092;18.918;2023-12-14T05:29:29;96098.09;;;5.44;77.22
82249;BME280;71851;49.092;18.918;2023-12-14T05:32:30;96100.78;;;5.36;77.43
82249;BME280;71851;49.092;18.918;2023-12-14T05:35:30;96108.69;;;5.42;77.15
82249;BME280;71851;49.092;18.918;2023-12-14T05:38:31;96112.91;;;5.43;76.71
82249;BME280;71851;49.092;18.918;2023-12-14T05:41:32;96107.34;;;5.46;76.75
82249;BME280;71851;49.092;18.918;2023-12-14T05:44:33;96114.00;;;5.49;76.89
82249;BME280;71851;49.092;18.918;2023-12-14T05:47:33;96116.75;;;5.47;76.53
82249;BME280;71851;49.092;18.918;2023-12-14T05:50:34;96126.31;;;5.55;76.31
82249;BME280;71851;49.092;18.918;2023-12-14T05:53:36;96130.84;;;5.38;76.71
82249;BME280;71851;49.092;18.918;2023-12-14T05:56:39;96131.03;;;5.51;76.93
82249;BME280;71851;49.092;18.918;2023-12-14T05:59:40;96139.75;;;5.58;76.01
82249;BME280;71851;49.092;18.918;2023-12-14T06:02:41;96151.69;;;5.53;76.68
82249;BME280;71851;49.092;18.918;2023-12-14T06:05:42;96157.53;;;5.55;76.49
82249;BME280;71851;49.092;18.918;2023-12-14T06:08:43;96169.97;;;5.59;76.16
82249;BME280;71851;49.092;18.918;2023-12-14T06:11:43;96157.53;;;5.55;76.45
82249;BME280;71851;49.092;18.918;2023-12-14T06:14:44;96162.81;;;5.61;76.32
82249;BME280;71851;49.092;18.918;2023-12-14T06:17:45;96169.84;;;5.61;76.58
82249;BME280;71851;49.092;18.918;2023-12-14T06:20:45;96173.28;;;5.53;76.67
82249;BME280;71851;49.092;18.918;2023-12-14T06:23:46;96177.72;;;5.53;76.71
82249;BME280;71851;49.092;18.918;2023-12-14T06:26:46;96174.09;;;5.54;76.35
82249;BME280;71851;49.092;18.918;2023-12-14T06:29:46;96179.13;;;5.55;76.41
82249;BME280;71851;49.092;18.918;2023-12-14T06:32:47;96191.06;;;5.50;76.41
82249;BME280;71851;49.092;18.918;2023-12-14T06:35:47;96188.91;;;5.53;77.04
82249;BME280;71851;49.092;18.918;2023-12-14T06:38:48;96188.13;;;5.53;76.96
82249;BME280;71851;49.092;18.918;2023-12-14T06:41:48;96190.53;;;5.54;77.28
82249;BME280;71851;49.092;18.918;2023-12-14T06:44:51;96192.13;;;5.55;77.16
82249;BME280;71851;49.092;18.918;2023-12-14T06:47:52;96195.94;;;5.53;77.04
82249;BME280;71851;49.092;18.918;2023-12-14T06:50:52;96201.00;;;5.46;76.90
82249;BME280;71851;49.092;18.918;2023-12-14T06:53:55;96198.47;;;5.61;77.49
82249;BME280;71851;49.092;18.918;2023-12-14T06:56:55;96209.84;;;5.60;77.19
82249;BME280;71851;49.092;18.918;2023-12-14T06:59:55;96221.88;;;5.61;77.26
82249;BME280;71851;49.092;18.918;2023-12-14T07:02:56;96229.50;;;5.62;77.19
82249;BME280;71851;49.092;18.918;2023-12-14T07:05:57;96227.72;;;5.63;76.95
82249;BME280;71851;49.092;18.918;2023-12-14T07:08:57;96227.88;;;5.61;76.39
82249;BME280;71851;49.092;18.918;2023-12-14T07:11:58;96238.13;;;5.63;77.20
82249;BME280;71851;49.092;18.918;2023-12-14T07:15:01;96248.53;;;5.63;76.42
82249;BME280;71851;49.092;18.918;2023-12-14T07:18:01;96245.50;;;5.74;76.39
82249;BME280;71851;49.092;18.918;2023-12-14T07:21:03;96254.38;;;5.79;75.96
82249;BME280;71851;49.092;18.918;2023-12-14T07:24:03;96251.53;;;5.74;76.19
82249;BME280;71851;49.092;18.918;2023-12-14T07:27:04;96254.63;;;5.70;76.11
82249;BME280;71851;49.092;18.918;2023-12-14T07:30:05;96259.41;;;5.66;76.29
82249;BME280;71851;49.092;18.918;2023-12-14T07:33:07;96268.59;;;5.77;76.04
82249;BME280;71851;49.092;18.918;2023-12-14T07:36:07;96257.34;;;5.76;75.81
82249;BME280;71851;49.092;18.918;2023-12-14T07:39:08;96271.00;;;5.78;75.93
82249;BME280;71851;49.092;18.918;2023-12-14T07:42:09;96274.66;;;5.69;75.61
82249;BME280;71851;49.092;18.918;2023-12-14T07:45:09;96281.41;;;5.78;75.65
82249;BME280;71851;49.092;18.918;2023-12-14T07:48:11;96274.06;;;5.82;76.06
82249;BME280;71851;49.092;18.918;2023-12-14T07:51:12;96286.59;;;5.86;75.80
82249;BME280;71851;49.092;18.918;2023-12-14T07:54:13;96286.41;;;5.88;75.47
82249;BME280;71851;49.092;18.918;2023-12-14T07:57:13;96286.84;;;5.91;75.27
82249;BME280;71851;49.092;18.918;2023-12-14T08:00:15;96294.16;;;5.96;74.97
82249;BME280;71851;49.092;18.918;2023-12-14T08:03:15;96298.72;;;5.94;75.03
82249;BME280;71851;49.092;18.918;2023-12-14T08:06:16;96301.88;;;6.04;75.00
82249;BME280;71851;49.092;18.918;2023-12-14T08:09:16;96302.00;;;6.11;74.17
82249;BME280;71851;49.092;18.918;2023-12-14T08:12:17;96311.16;;;6.07;74.27
82249;BME280;71851;49.092;18.918;2023-12-14T08:15:17;96310.19;;;6.22;73.69
82249;BME280;71851;49.092;18.918;2023-12-14T08:18:18;96319.53;;;6.17;73.44
82249;BME280;71851;49.092;18.918;2023-12-14T08:21:19;96319.34;;;6.18;73.02
82249;BME280;71851;49.092;18.918;2023-12-14T08:24:19;96328.16;;;6.32;73.35
82249;BME280;71851;49.092;18.918;2023-12-14T08:27:20;96321.16;;;6.32;72.99
82249;BME280;71851;49.092;18.918;2023-12-14T08:30:20;96327.63;;;6.36;72.69
82249;BME280;71851;49.092;18.918;2023-12-14T08:33:21;96338.31;;;6.27;72.66
82249;BME280;71851;49.092;18.918;2023-12-14T08:36:21;96333.66;;;6.37;72.55
82249;BME280;71851;49.092;18.918;2023-12-14T08:39:21;96337.97;;;6.44;72.75
82249;BME280;71851;49.092;18.918;2023-12-14T08:42:22;96337.44;;;6.49;72.27
82249;BME280;71851;49.092;18.918;2023-12-14T08:45:22;96344.38;;;6.56;71.97
82249;BME280;71851;49.092;18.918;2023-12-14T08:48:23;96349.69;;;6.63;71.34
82249;BME280;71851;49.092;18.918;2023-12-14T08:51:24;96352.63;;;6.60;71.40
82249;BME280;71851;49.092;18.918;2023-12-14T08:54:27;96362.09;;;6.61;71.34
82249;BME280;71851;49.092;18.918;2023-12-14T08:57:27;96364.50;;;6.62;71.05
82249;BME280;71851;49.092;18.918;2023-12-14T09:00:27;96373.06;;;6.71;70.39
82249;BME280;71851;49.092;18.918;2023-12-14T09:03:28;96384.28;;;6.71;70.90
82249;BME280;71851;49.092;18.918;2023-12-14T09:06:28;96389.41;;;6.79;70.25
82249;BME280;71851;49.092;18.918;2023-12-14T09:09:29;96398.41;;;6.77;70.31
82249;BME280;71851;49.092;18.918;2023-12-14T09:12:29;96389.88;;;6.83;70.21
82249;BME280;71851;49.092;18.918;2023-12-14T09:15:33;96397.88;;;6.96;70.44
82249;BME280;71851;49.092;18.918;2023-12-14T09:18:34;96398.41;;;6.92;69.48
82249;BME280;71851;49.092;18.918;2023-12-14T09:21:34;96402.53;;;6.86;70.30
82249;BME280;71851;49.092;18.918;2023-12-14T09:24:34;96400.66;;;6.95;69.37
82249;BME280;71851;49.092;18.918;2023-12-14T09:27:35;96399.66;;;6.96;69.29
82249;BME280;71851;49.092;18.918;2023-12-14T09:30:35;96405.69;;;6.81;69.39
82249;BME280;71851;49.092;18.918;2023-12-14T09:33:36;96410.63;;;6.76;70.13
82249;BME280;71851;49.092;18.918;2023-12-14T09:36:37;96415.75;;;6.70;69.97
82249;BME280;71851;49.092;18.918;2023-12-14T09:39:37;96417.91;;;6.66;70.43
82249;BME280;71851;49.092;18.918;2023-12-14T09:42:38;96420.88;;;6.78;69.86
82249;BME280;71851;49.092;18.918;2023-12-14T09:45:40;96430.34;;;6.79;69.68
82249;BME280;71851;49.092;18.918;2023-12-14T09:48:45;96428.81;;;6.84;69.50
82249;BME280;71851;49.092;18.918;2023-12-14T09:51:46;96437.72;;;6.90;69.64
82249;BME280;71851;49.092;18.918;2023-12-14T09:54:47;96426.94;;;6.93;70.00
82249;BME280;71851;49.092;18.918;2023-12-14T09:57:48;96440.13;;;6.92;69.67
82249;BME280;71851;49.092;18.918;2023-12-14T10:00:48;96439.25;;;6.84;69.29
82249;BME280;71851;49.092;18.918;2023-12-14T10:03:49;96444.72;;;6.89;69.37
82249;BME280;71851;49.092;18.918;2023-12-14T10:06:49;96439.41;;;6.98;69.31
82249;BME280;71851;49.092;18.918;2023-12-14T10:09:49;96448.44;;;6.95;69.46
82249;BME280;71851;49.092;18.918;2023-12-14T10:12:54;96450.31;;;7.01;69.04
82249;BME280;71851;49.092;18.918;2023-12-14T10:15:54;96455.28;;;7.11;68.72
82249;BME280;71851;49.092;18.918;2023-12-14T10:18:55;96459.16;;;7.15;68.47
82249;BME280;71851;49.092;18.918;2023-12-14T10:21:56;96465.97;;;7.16;67.87
82249;BME280;71851;49.092;18.918;2023-12-14T10:24:56;96461.22;;;7.19;68.02
82249;BME280;71851;49.092;18.918;2023-12-14T10:27:57;96471.09;;;7.24;67.86
82249;BME280;71851;49.092;18.918;2023-12-14T10:30:57;96475.16;;;7.26;67.31
82249;BME280;71851;49.092;18.918;2023-12-14T10:33:58;96470.19;;;7.46;66.92
82249;BME280;71851;49.092;18.918;2023-12-14T10:36:59;96469.66;;;7.50;66.71
82249;BME280;71851;49.092;18.918;2023-12-14T10:40:00;96476.84;;;7.63;66.29
82249;BME280;71851;49.092;18.918;2023-12-14T10:43:01;96481.59;;;7.74;65.49
82249;BME280;71851;49.092;18.918;2023-12-14T10:46:05;96488.38;;;8.04;65.40
82249;BME280;71851;49.092;18.918;2023-12-14T10:49:10;96482.13;;;8.55;63.12
82249;BME280;71851;49.092;18.918;2023-12-14T10:52:11;96494.31;;;8.70;62.24
82249;BME280;71851;49.092;18.918;2023-12-14T10:55:42;96488.50;;;9.02;61.15
82249;BME280;71851;49.092;18.918;2023-12-14T10:58:53;96496.19;;;9.03;61.15
82249;BME280;71851;49.092;18.918;2023-12-14T11:01:55;96498.41;;;9.06;61.00
82249;BME280;71851;49.092;18.918;2023-12-14T11:04:56;96502.22;;;9.04;60.59
82249;BME280;71851;49.092;18.918;2023-12-14T11:08:05;96500.41;;;9.04;61.25
82249;BME280;71851;49.092;18.918;2023-12-14T11:11:12;96507.56;;;8.89;61.25
82249;BME280;71851;49.092;18.918;2023-12-14T11:14:16;96505.31;;;8.86;61.23
82249;BME280;71851;49.092;18.918;2023-12-14T11:17:18;96519.53;;;8.77;61.82
82249;BME280;71851;49.092;18.918;2023-12-14T11:20:26;96516.00;;;8.64;61.29
82249;BME280;71851;49.092;18.918;2023-12-14T11:23:32;96507.13;;;8.86;60.91
82249;BME280;71851;49.092;18.918;2023-12-14T11:26:34;96510.16;;;8.89;60.96
82249;BME280;71851;49.092;18.918;2023-12-14T11:29:38;96509.97;;;9.18;59.86
82249;BME280;71851;49.092;18.918;2023-12-14T11:32:39;96502.13;;;9.18;59.92
82249;BME280;71851;49.092;18.918;2023-12-14T11:35:40;96510.50;;;9.07;60.10
82249;BME280;71851;49.092;18.918;2023-12-14T11:38:40;96516.88;;;8.98;60.99
82249;BME280;71851;49.092;18.918;2023-12-14T11:41:41;96531.97;;;8.75;60.80
82249;BME280;71851;49.092;18.918;2023-12-14T11:44:41;96522.00;;;8.64;61.31
82249;BME280;71851;49.092;18.918;2023-12-14T11:47:43;96528.81;;;8.58;61.57
82249;BME280;71851;49.092;18.918;2023-12-14T11:50:43;96530.59;;;8.58;61.05
82249;BME280;71851;49.092;18.918;2023-12-14T11:53:49;96533.59;;;8.55;61.35
82249;BME280;71851;49.092;18.918;2023-12-14T11:56:50;96532.78;;;8.33;61.92
82249;BME280;71851;49.092;18.918;2023-12-14T11:59:50;96540.03;;;8.38;61.75
82249;BME280;71851;49.092;18.918;2023-12-14T12:02:52;96539.41;;;8.36;62.29
82249;BME280;71851;49.092;18.918;2023-12-14T12:05:53;96555.69;;;8.31;62.82
82249;BME280;71851;49.092;18.918;2023-12-14T12:08:53;96545.84;;;8.33;62.43
82249;BME280;71851;49.092;18.918;2023-12-14T12:11:54;96546.72;;;8.40;61.46
82249;BME280;71851;49.092;18.918;2023-12-14T12:14:54;96554.44;;;8.27;62.12
82249;BME280;71851;49.092;18.918;2023-12-14T12:17:55;96566.56;;;8.35;61.88
82249;BME280;71851;49.092;18.918;2023-12-14T12:20:55;96571.78;;;8.20;62.29
82249;BME280;71851;49.092;18.918;2023-12-14T12:23:58;96569.81;;;8.22;62.74
82249;BME280;71851;49.092;18.918;2023-12-14T12:26:59;96576.38;;;8.18;62.94
82249;BME280;71851;49.092;18.918;2023-12-14T12:30:24;96588.84;;;8.31;63.49
82249;BME280;71851;49.092;18.918;2023-12-14T12:33:25;96590.53;;;8.24;62.69
82249;BME280;71851;49.092;18.918;2023-12-14T12:36:26;96595.31;;;8.20;62.50
82249;BME280;71851;49.092;18.918;2023-12-14T12:39:27;96594.97;;;8.09;63.32
82249;BME280;71851;49.092;18.918;2023-12-14T12:42:28;96609.00;;;8.08;63.37
82249;BME280;71851;49.092;18.918;2023-12-14T12:45:29;96607.75;;;8.04;63.61
82249;BME280;71851;49.092;18.918;2023-12-14T12:48:30;96611.91;;;7.98;63.39
82249;BME280;71851;49.092;18.918;2023-12-14T12:51:31;96614.81;;;7.89;63.79
82249;BME280;71851;49.092;18.918;2023-12-14T12:54:31;96625.06;;;7.90;63.85
82249;BME280;71851;49.092;18.918;2023-12-14T12:57:33;96623.81;;;7.71;63.85
82249;BME280;71851;49.092;18.918;2023-12-14T13:00:33;96628.81;;;7.58;64.15
82249;BME280;71851;49.092;18.918;2023-12-14T13:03:36;96627.00;;;7.44;64.93
82249;BME280;71851;49.092;18.918;2023-12-14T13:06:37;96640.75;;;7.38;65.34
82249;BME280;71851;49.092;18.918;2023-12-14T13:09:37;96645.34;;;7.36;65.79
82249;BME280;71851;49.092;18.918;2023-12-14T13:12:38;96654.63;;;7.39;66.27
82249;BME280;71851;49.092;18.918;2023-12-14T13:15:39;96663.50;;;7.30;67.11
82249;BME280;71851;49.092;18.918;2023-12-14T13:18:39;96668.13;;;7.20;66.43
82249;BME280;71851;49.092;18.918;2023-12-14T13:21:40;96665.44;;;7.13;67.14
82249;BME280;71851;49.092;18.918;2023-12-14T13:24:40;96672.50;;;7.05;66.37
82249;BME280;71851;49.092;18.918;2023-12-14T13:27:41;96673.91;;;7.15;66.26
82249;BME280;71851;49.092;18.918;2023-12-14T13:30:42;96692.97;;;7.16;66.79
82249;BME280;71851;49.092;18.918;2023-12-14T13:33:44;96692.16;;;7.15;66.47
82249;BME280;71851;49.092;18.918;2023-12-14T13:36:46;96697.47;;;7.22;66.32
82249;BME280;71851;49.092;18.918;2023-12-14T13:39:47;96693.84;;;7.31;65.91
82249;BME280;71851;49.092;18.918;2023-12-14T13:42:48;96701.59;;;7.39;66.19
82249;BME280;71851;49.092;18.918;2023-12-14T13:45:49;96705.31;;;7.44;65.96
82249;BME280;71851;49.092;18.918;2023-12-14T13:48:52;96708.09;;;7.43;66.16
82249;BME280;71851;49.092;18.918;2023-12-14T13:51:53;96708.09;;;7.20;65.75
82249;BME280;71851;49.092;18.918;2023-12-14T13:54:53;96718.81;;;7.03;66.82
82249;BME280;71851;49.092;18.918;2023-12-14T13:57:56;96721.94;;;6.98;66.80
82249;BME280;71851;49.092;18.918;2023-12-14T14:00:58;96740.47;;;6.80;67.37
82249;BME280;71851;49.092;18.918;2023-12-14T14:03:58;96736.78;;;6.67;67.51
82249;BME280;71851;49.092;18.918;2023-12-14T14:06:58;96740.06;;;6.61;68.41
82249;BME280;71851;49.092;18.918;2023-12-14T14:09:59;96744.97;;;6.56;68.92
82249;BME280;71851;49.092;18.918;2023-12-14T14:12:59;96741.47;;;6.33;69.28
82249;BME280;71851;49.092;18.918;2023-12-14T14:16:00;96758.72;;;6.26;69.60
82249;BME280;71851;49.092;18.918;2023-12-14T14:19:01;96758.94;;;6.16;70.31
82249;BME280;71851;49.092;18.918;2023-12-14T14:22:01;96781.72;;;6.14;70.33
82249;BME280;71851;49.092;18.918;2023-12-14T14:25:02;96769.84;;;6.12;70.31
82249;BME280;71851;49.092;18.918;2023-12-14T14:28:03;96781.75;;;5.98;71.67
82249;BME280;71851;49.092;18.918;2023-12-14T14:31:04;96790.84;;;5.94;72.46
82249;BME280;71851;49.092;18.918;2023-12-14T14:34:04;96780.13;;;5.89;73.23
82249;BME280;71851;49.092;18.918;2023-12-14T14:37:05;96788.56;;;5.75;73.53
82249;BME280;71851;49.092;18.918;2023-12-14T14:40:06;96795.72;;;5.73;74.21
82249;BME280;71851;49.092;18.918;2023-12-14T14:43:08;96803.00;;;5.53;75.02
82249;BME280;71851;49.092;18.918;2023-12-14T14:46:09;96808.84;;;5.39;75.46
82249;BME280;71851;49.092;18.918;2023-12-14T14:49:10;96818.72;;;5.19;76.23
82249;BME280;71851;49.092;18.918;2023-12-14T14:52:10;96825.69;;;5.03;77.02
82249;BME280;71851;49.092;18.918;2023-12-14T14:55:11;96824.84;;;4.94;77.89
82249;BME280;71851;49.092;18.918;2023-12-14T14:58:11;96833.59;;;4.93;77.81
82249;BME280;71851;49.092;18.918;2023-12-14T15:01:11;96845.66;;;5.02;78.15
82249;BME280;71851;49.092;18.918;2023-12-14T15:04:12;96837.72;;;5.12;77.72
82249;BME280;71851;49.092;18.918;2023-12-14T15:07:12;96846.53;;;5.19;77.13
82249;BME280;71851;49.092;18.918;2023-12-14T15:10:13;96840.84;;;5.24;77.30
82249;BME280;71851;49.092;18.918;2023-12-14T15:13:13;96847.16;;;5.05;77.14
82249;BME280;71851;49.092;18.918;2023-12-14T15:16:15;96851.75;;;4.85;77.70
82249;BME280;71851;49.092;18.918;2023-12-14T15:19:15;96864.00;;;4.67;78.57
82249;BME280;71851;49.092;18.918;2023-12-14T15:22:16;96863.78;;;4.53;79.02
82249;BME280;71851;49.092;18.918;2023-12-14T15:25:16;96856.56;;;4.39;79.74
82249;BME280;71851;49.092;18.918;2023-12-14T15:28:17;96866.56;;;4.33;80.06
82249;BME280;71851;49.092;18.918;2023-12-14T15:31:18;96869.78;;;4.27;80.28
82249;BME280;71851;49.092;18.918;2023-12-14T15:34:18;96874.97;;;4.27;80.48
82249;BME280;71851;49.092;18.918;2023-12-14T15:37:19;96877.28;;;4.30;80.32
82249;BME280;71851;49.092;18.918;2023-12-14T15:40:19;96883.94;;;4.33;80.12
82249;BME280;71851;49.092;18.918;2023-12-14T15:43:19;96884.59;;;4.35;80.37
82249;BME280;71851;49.092;18.918;2023-12-14T15:46:20;96888.03;;;4.36;79.69
82249;BME280;71851;49.092;18.918;2023-12-14T15:49:21;96896.31;;;4.39;79.81
82249;BME280;71851;49.092;18.918;2023-12-14T15:52:21;96901.81;;;4.36;79.84
82249;BME280;71851;49.092;18.918;2023-12-14T15:55:22;96903.31;;;4.39;79.57
82249;BME280;71851;49.092;18.918;2023-12-14T15:58:24;96906.09;;;4.45;79.65